createdAt,value
2022-12-03T00:01:17.435Z,-0.10
2022-12-03T00:03:44.863Z,-0.11
2022-12-03T00:06:12.201Z,-0.11
2022-12-03T00:08:40.062Z,-0.14
2022-12-03T00:11:07.069Z,-0.15
2022-12-03T00:13:34.686Z,-0.15
2022-12-03T00:16:01.706Z,-0.16
2022-12-03T00:18:29.048Z,-0.16
2022-12-03T00:20:56.230Z,-0.17
2022-12-03T00:23:23.491Z,-0.15
2022-12-03T00:25:50.767Z,-0.17
2022-12-03T00:28:18.053Z,-0.17
2022-12-03T00:30:45.620Z,-0.12
2022-12-03T00:33:12.974Z,-0.10
2022-12-03T00:35:40.011Z,-0.10
2022-12-03T00:38:07.335Z,-0.06
2022-12-03T00:40:35.007Z,-0.05
2022-12-03T00:43:02.303Z,-0.07
2022-12-03T00:45:29.393Z,-0.07
2022-12-03T00:47:57.198Z,-0.08
2022-12-03T00:50:49.615Z,-0.07
2022-12-03T00:56:01.066Z,-0.12
2022-12-03T00:58:28.557Z,-0.13
2022-12-03T01:00:55.622Z,-0.11
2022-12-03T01:03:23.268Z,-0.11
2022-12-03T01:05:50.230Z,-0.15
2022-12-03T01:08:17.684Z,-0.15
2022-12-03T01:10:44.625Z,-0.13
2022-12-03T01:13:11.947Z,-0.12
2022-12-03T01:15:39.014Z,-0.10
2022-12-03T01:18:06.495Z,-0.11
2022-12-03T01:20:33.738Z,-0.11
2022-12-03T01:23:01.590Z,-0.11
2022-12-03T01:25:28.632Z,-0.14
2022-12-03T01:27:56.172Z,-0.15
2022-12-03T01:30:23.102Z,-0.17
2022-12-03T01:32:50.585Z,-0.15
2022-12-03T01:35:17.644Z,-0.19
2022-12-03T01:37:45.020Z,-0.13
2022-12-03T01:40:19.949Z,-0.13
2022-12-03T01:42:47.369Z,-0.16
2022-12-03T01:45:23.997Z,-0.11
2022-12-03T01:47:52.516Z,-0.11
2022-12-03T01:50:26.881Z,-0.10
2022-12-03T01:52:58.427Z,-0.12
2022-12-03T01:55:26.787Z,-0.14
2022-12-03T01:57:56.966Z,-0.13
2022-12-03T02:00:30.080Z,-0.14
2022-12-03T02:03:03.745Z,-0.12
2022-12-03T02:05:33.258Z,-0.12
2022-12-03T02:08:02.197Z,-0.14
2022-12-03T02:10:36.223Z,-0.15
2022-12-03T02:13:07.684Z,-0.14
2022-12-03T02:15:36.477Z,-0.12
2022-12-03T02:18:04.301Z,-0.17
2022-12-03T02:20:36.803Z,-0.17
2022-12-03T02:23:25.744Z,-0.19
2022-12-03T02:25:53.012Z,-0.19
2022-12-03T02:28:20.320Z,-0.19
2022-12-03T02:30:47.369Z,-0.26
2022-12-03T02:33:14.812Z,-0.26
2022-12-03T02:35:41.859Z,-0.25
2022-12-03T02:38:31.425Z,-0.28
2022-12-03T02:41:05.026Z,-0.27
2022-12-03T02:43:32.759Z,-0.26
2022-12-03T02:46:02.660Z,-0.26
2022-12-03T02:48:37.229Z,-0.24
2022-12-03T02:51:07.225Z,-0.24
2022-12-03T02:53:42.654Z,-0.23
2022-12-03T02:56:13.308Z,-0.24
2022-12-03T03:01:09.777Z,-0.24
2022-12-03T03:03:38.041Z,-0.23
2022-12-03T03:06:07.105Z,-0.24
2022-12-03T03:08:35.310Z,-0.25
2022-12-03T03:11:03.655Z,-0.22
2022-12-03T03:13:33.393Z,-0.23
2022-12-03T03:16:03.151Z,-0.23
2022-12-03T03:18:30.908Z,-0.22
2022-12-03T03:20:58.040Z,-0.24
2022-12-03T03:23:25.314Z,-0.27
2022-12-03T03:26:06.187Z,-0.31
2022-12-03T03:28:38.738Z,-0.28
2022-12-03T03:31:08.342Z,-0.31
2022-12-03T03:33:38.770Z,-0.33
2022-12-03T03:36:07.320Z,-0.34
2022-12-03T03:38:36.270Z,-0.35
2022-12-03T03:41:06.005Z,-0.36
2022-12-03T03:43:35.571Z,-0.36
2022-12-03T03:46:05.705Z,-0.33
2022-12-03T03:48:37.394Z,-0.31
2022-12-03T03:51:09.423Z,-0.30
2022-12-03T03:53:40.126Z,-0.25
2022-12-03T03:56:09.798Z,-0.25
2022-12-03T03:58:37.852Z,-0.23
2022-12-03T04:01:05.367Z,-0.18
2022-12-03T04:03:35.418Z,-0.18
2022-12-03T04:06:03.525Z,-0.21
2022-12-03T04:08:31.305Z,-0.20
2022-12-03T04:11:16.925Z,-0.25
2022-12-03T04:13:44.318Z,-0.23
2022-12-03T04:16:11.273Z,-0.27
2022-12-03T04:18:44.429Z,-0.27
2022-12-03T04:21:35.717Z,-0.24
2022-12-03T04:24:03.789Z,-0.21
2022-12-03T04:26:49.880Z,-0.29
2022-12-03T04:29:17.234Z,-0.22
2022-12-03T04:32:02.602Z,-0.23
2022-12-03T04:34:48.285Z,-0.23
2022-12-03T04:37:15.520Z,-0.27
2022-12-03T04:39:43.419Z,-0.26
2022-12-03T04:42:10.434Z,-0.28
2022-12-03T04:44:38.772Z,-0.27
2022-12-03T04:47:17.694Z,-0.28
2022-12-03T04:49:47.311Z,-0.23
2022-12-03T04:52:16.483Z,-0.21
2022-12-03T04:54:44.778Z,-0.22
2022-12-03T04:57:12.802Z,-0.20
2022-12-03T04:59:40.458Z,-0.21
2022-12-03T05:02:08.088Z,-0.21
2022-12-03T05:04:35.929Z,-0.23
2022-12-03T05:07:03.237Z,-0.27
2022-12-03T05:09:30.676Z,-0.28
2022-12-03T05:11:57.631Z,-0.30
2022-12-03T05:14:25.022Z,-0.29
2022-12-03T05:16:52.115Z,-0.33
2022-12-03T05:19:19.510Z,-0.31
2022-12-03T05:21:55.640Z,-0.38
2022-12-03T05:24:33.975Z,-0.31
2022-12-03T05:27:01.469Z,-0.32
2022-12-03T05:29:28.732Z,-0.33
2022-12-03T05:31:57.651Z,-0.31
2022-12-03T05:34:25.513Z,-0.30
2022-12-03T05:36:52.593Z,-0.28
2022-12-03T05:39:20.028Z,-0.26
2022-12-03T05:42:05.422Z,-0.22
2022-12-03T05:44:32.702Z,-0.24
2022-12-03T05:46:59.648Z,-0.22
2022-12-03T05:49:26.968Z,-0.22
2022-12-03T05:51:58.393Z,-0.21
2022-12-03T05:54:26.479Z,-0.20
2022-12-03T05:56:53.509Z,-0.18
2022-12-03T05:59:20.970Z,-0.14
2022-12-03T06:01:47.981Z,-0.16
2022-12-03T06:04:15.290Z,-0.18
2022-12-03T06:06:42.784Z,-0.14
2022-12-03T06:09:10.144Z,-0.22
2022-12-03T06:11:37.456Z,-0.15
2022-12-03T06:14:04.800Z,-0.12
2022-12-03T06:16:32.375Z,-0.08
2022-12-03T06:19:14.130Z,-0.10
2022-12-03T06:21:42.768Z,-0.13
2022-12-03T06:27:04.150Z,-0.09
2022-12-03T06:32:28.761Z,-0.14
2022-12-03T06:37:40.156Z,-0.13
2022-12-03T06:40:09.454Z,-0.06
2022-12-03T06:42:36.562Z,-0.09
2022-12-03T06:45:04.344Z,-0.07
2022-12-03T06:47:31.371Z,-0.10
2022-12-03T06:49:59.080Z,-0.08
2022-12-03T06:55:11.228Z,-0.06
2022-12-03T06:57:38.254Z,-0.04
2022-12-03T07:00:06.672Z,0.04
2022-12-03T07:02:33.761Z,0.07
2022-12-03T07:05:01.460Z,-0.03
2022-12-03T07:07:28.584Z,-0.02
2022-12-03T07:09:56.177Z,-0.03
2022-12-03T07:12:24.254Z,0.01
2022-12-03T07:14:52.147Z,0.06
2022-12-03T07:17:19.564Z,0.15
2022-12-03T07:19:47.262Z,0.25
2022-12-03T07:22:18.568Z,0.30
2022-12-03T07:24:51.083Z,0.41
2022-12-03T07:27:19.325Z,0.45
2022-12-03T07:29:46.766Z,0.54
2022-12-03T07:32:14.887Z,0.45
2022-12-03T07:34:44.186Z,0.42
2022-12-03T07:37:11.266Z,0.42
2022-12-03T07:39:41.018Z,0.35
2022-12-03T07:42:10.082Z,0.32
2022-12-03T07:47:20.360Z,0.31
2022-12-03T07:49:47.763Z,0.29
2022-12-03T07:52:15.026Z,0.33
2022-12-03T07:54:42.479Z,0.39
2022-12-03T07:57:09.528Z,0.39
2022-12-03T07:59:36.839Z,0.46
2022-12-03T08:02:04.020Z,0.39
2022-12-03T08:04:35.704Z,0.45
2022-12-03T08:07:03.408Z,0.46
2022-12-03T08:09:32.678Z,0.47
2022-12-03T08:12:05.597Z,0.46
2022-12-03T08:14:33.899Z,0.46
2022-12-03T08:17:02.066Z,0.46
2022-12-03T08:19:31.896Z,0.49
2022-12-03T08:22:01.621Z,0.51
2022-12-03T08:24:32.331Z,0.50
2022-12-03T08:26:59.805Z,0.50
2022-12-03T08:29:34.500Z,0.55
2022-12-03T08:32:01.579Z,0.53
2022-12-03T08:34:35.844Z,0.59
2022-12-03T08:37:18.180Z,0.64
2022-12-03T08:39:48.582Z,0.67
2022-12-03T08:42:41.758Z,0.81
2022-12-03T08:45:40.574Z,0.87
2022-12-03T08:48:40.698Z,0.81
2022-12-03T08:51:25.601Z,0.74
2022-12-03T08:54:01.856Z,0.75
2022-12-03T08:56:33.601Z,0.70
2022-12-03T08:59:25.007Z,0.70
2022-12-03T09:01:55.034Z,0.72
2022-12-03T09:04:30.730Z,0.75
2022-12-03T09:07:01.155Z,0.78
2022-12-03T09:09:29.315Z,0.82
2022-12-03T09:11:59.752Z,0.78
2022-12-03T09:14:29.656Z,0.87
2022-12-03T09:16:57.585Z,0.94
2022-12-03T09:19:27.479Z,0.99
2022-12-03T09:21:55.768Z,1.01
2022-12-03T09:24:23.405Z,0.98
2022-12-03T09:26:56.453Z,0.93
2022-12-03T09:29:24.342Z,0.92
2022-12-03T09:31:51.765Z,0.86
2022-12-03T09:34:18.886Z,0.90
2022-12-03T09:36:46.212Z,0.91
2022-12-03T09:39:13.349Z,0.95
2022-12-03T09:41:40.849Z,0.97
2022-12-03T09:44:13.726Z,1.00
2022-12-03T09:46:46.691Z,1.01
2022-12-03T09:49:16.648Z,1.05
2022-12-03T09:51:48.789Z,1.02
2022-12-03T09:54:24.107Z,1.10
2022-12-03T09:56:52.808Z,1.03
2022-12-03T09:59:21.953Z,1.02
2022-12-03T10:01:50.114Z,1.06
2022-12-03T10:04:17.904Z,1.03
2022-12-03T10:06:46.395Z,0.97
2022-12-03T10:09:17.577Z,1.03
2022-12-03T10:11:45.432Z,1.02
2022-12-03T10:14:17.943Z,1.04
2022-12-03T10:17:02.527Z,0.98
2022-12-03T10:19:35.849Z,0.95
2022-12-03T10:22:03.872Z,0.94
2022-12-03T10:24:32.652Z,0.95
2022-12-03T10:30:02.437Z,0.94
2022-12-03T10:32:45.505Z,0.89
2022-12-03T10:35:14.187Z,0.94
2022-12-03T10:38:00.682Z,0.93
2022-12-03T10:40:33.925Z,0.93
2022-12-03T10:43:19.937Z,0.92
2022-12-03T10:46:08.038Z,0.87
2022-12-03T10:48:36.890Z,0.87
2022-12-03T10:51:32.339Z,0.88
2022-12-03T10:54:14.514Z,0.78
2022-12-03T10:56:41.502Z,0.75
2022-12-03T10:59:31.338Z,0.84
2022-12-03T11:01:58.611Z,0.79
2022-12-03T11:04:35.211Z,0.85
2022-12-03T11:07:03.372Z,0.87
2022-12-03T11:09:32.878Z,0.81
2022-12-03T11:15:09.814Z,0.88
2022-12-03T11:18:10.557Z,0.90
2022-12-03T11:20:58.444Z,0.92
2022-12-03T11:23:44.807Z,0.93
2022-12-03T11:26:19.569Z,0.89
2022-12-03T11:28:49.287Z,0.89
2022-12-03T11:31:37.771Z,0.86
2022-12-03T11:34:20.514Z,0.88
2022-12-03T11:37:09.620Z,0.91
2022-12-03T11:39:52.730Z,0.92
2022-12-03T11:42:26.482Z,0.92
2022-12-03T11:45:28.482Z,0.90
2022-12-03T11:47:58.974Z,0.87
2022-12-03T11:50:40.557Z,0.86
2022-12-03T11:53:07.982Z,0.86
2022-12-03T11:55:41.502Z,0.89
2022-12-03T11:58:19.439Z,0.92
2022-12-03T12:00:58.332Z,0.88
2022-12-03T12:03:33.952Z,0.92
2022-12-03T12:06:05.907Z,0.90
2022-12-03T12:08:39.218Z,0.90
2022-12-03T12:11:32.662Z,0.89
2022-12-03T12:14:00.575Z,0.90
2022-12-03T12:16:36.354Z,0.93
2022-12-03T12:19:29.942Z,0.86
2022-12-03T12:22:12.841Z,0.95
2022-12-03T12:24:40.558Z,0.97
2022-12-03T12:27:19.131Z,0.97
2022-12-03T12:29:54.969Z,0.94
2022-12-03T12:32:46.038Z,0.91
2022-12-03T12:35:26.458Z,0.95
2022-12-03T12:37:59.814Z,0.94
2022-12-03T12:40:31.128Z,0.95
2022-12-03T12:43:05.414Z,0.96
2022-12-03T12:45:41.299Z,0.98
2022-12-03T12:48:28.957Z,0.97
2022-12-03T12:51:19.594Z,0.99
2022-12-03T12:53:49.891Z,1.03
2022-12-03T12:56:25.577Z,1.03
2022-12-03T12:58:53.830Z,1.02
2022-12-03T13:01:29.163Z,0.96
2022-12-03T13:03:57.102Z,1.02
2022-12-03T13:06:27.996Z,1.01
2022-12-03T13:08:55.532Z,1.03
2022-12-03T13:11:45.814Z,1.01
2022-12-03T13:14:16.215Z,1.01
2022-12-03T13:16:44.430Z,0.97
2022-12-03T13:19:29.313Z,1.02
2022-12-03T13:22:00.912Z,0.97
2022-12-03T13:28:41.894Z,0.94
2022-12-03T13:31:23.845Z,0.95
2022-12-03T13:33:54.855Z,0.89
2022-12-03T13:36:27.600Z,0.95
2022-12-03T13:38:54.832Z,0.93
2022-12-03T13:44:49.884Z,0.97
2022-12-03T13:47:22.783Z,0.94
2022-12-03T13:52:42.645Z,0.88
2022-12-03T13:55:11.945Z,0.84
2022-12-03T13:57:45.439Z,0.78
2022-12-03T14:03:28.773Z,0.88
2022-12-03T14:05:57.389Z,0.90
2022-12-03T14:11:40.943Z,0.84
2022-12-03T14:14:22.933Z,0.83
2022-12-03T14:22:19.732Z,0.70
2022-12-03T14:24:52.466Z,0.63
2022-12-03T14:27:21.066Z,0.60
2022-12-03T14:29:48.134Z,0.61
2022-12-03T14:32:16.918Z,0.55
2022-12-03T14:34:47.603Z,0.54
2022-12-03T14:37:18.655Z,0.55
2022-12-03T14:39:48.685Z,0.48
2022-12-03T14:42:39.130Z,0.54
2022-12-03T14:45:10.994Z,0.50
2022-12-03T14:47:38.850Z,0.43
2022-12-03T14:50:30.443Z,0.46
2022-12-03T14:56:03.340Z,0.48
2022-12-03T15:01:45.091Z,0.45
2022-12-03T15:04:13.177Z,0.47
2022-12-03T15:06:40.348Z,0.46
2022-12-03T15:12:11.400Z,0.46
2022-12-03T15:14:43.896Z,0.46
2022-12-03T15:17:12.494Z,0.39
2022-12-03T15:19:40.210Z,0.44
2022-12-03T15:22:07.258Z,0.41
2022-12-03T15:24:34.735Z,0.38
2022-12-03T15:27:01.692Z,0.39
2022-12-03T15:29:32.555Z,0.33
2022-12-03T15:32:01.952Z,0.28
2022-12-03T15:34:30.750Z,0.27
2022-12-03T15:36:57.782Z,0.30
2022-12-03T15:39:48.786Z,0.28
2022-12-03T15:42:15.986Z,0.22
2022-12-03T15:44:48.402Z,0.29
2022-12-03T15:47:17.707Z,0.25
2022-12-03T15:49:53.527Z,0.22
2022-12-03T15:52:22.310Z,0.28
2022-12-03T15:54:49.927Z,0.28
2022-12-03T15:57:17.221Z,0.26
2022-12-03T15:59:48.366Z,0.23
2022-12-03T16:02:20.989Z,0.25
2022-12-03T16:04:48.596Z,0.22
2022-12-03T16:07:19.832Z,0.23
2022-12-03T16:09:47.857Z,0.23
2022-12-03T16:12:17.378Z,0.16
2022-12-03T16:14:47.407Z,0.14
2022-12-03T16:17:14.442Z,0.15
2022-12-03T16:19:42.000Z,0.15
2022-12-03T16:22:09.757Z,0.16
2022-12-03T16:24:39.363Z,0.12
2022-12-03T16:29:48.834Z,0.00
2022-12-03T16:32:15.844Z,-0.09
2022-12-03T16:34:43.164Z,-0.12
2022-12-03T16:37:11.553Z,-0.11
2022-12-03T16:39:40.138Z,-0.15
2022-12-03T16:42:16.959Z,-0.15
2022-12-03T16:45:12.037Z,-0.16
2022-12-03T16:47:40.325Z,-0.15
2022-12-03T16:50:19.848Z,-0.17
2022-12-03T16:52:49.482Z,-0.12
2022-12-03T16:55:16.821Z,-0.11
2022-12-03T16:57:44.042Z,-0.08
2022-12-03T17:00:11.790Z,-0.10
2022-12-03T17:02:39.034Z,-0.11
2022-12-03T17:05:06.790Z,-0.12
2022-12-03T17:07:34.120Z,-0.11
2022-12-03T17:10:05.188Z,-0.10
2022-12-03T17:12:54.163Z,-0.15
2022-12-03T17:15:19.564Z,-0.21
2022-12-03T17:17:47.055Z,-0.15
2022-12-03T17:20:18.563Z,-0.17
2022-12-03T17:23:06.550Z,-0.17
2022-12-03T17:25:34.706Z,-0.24
2022-12-03T17:28:02.069Z,-0.17
2022-12-03T17:30:31.571Z,-0.20
2022-12-03T17:32:59.414Z,-0.21
2022-12-03T17:35:28.655Z,-0.23
2022-12-03T17:37:55.906Z,-0.24
2022-12-03T17:40:24.063Z,-0.28
2022-12-03T17:42:52.248Z,-0.37
2022-12-03T17:45:19.974Z,-0.38
2022-12-03T17:47:47.219Z,-0.45
2022-12-03T17:50:15.032Z,-0.50
2022-12-03T17:52:44.090Z,-0.50
2022-12-03T17:55:17.732Z,-0.51
2022-12-03T17:57:49.054Z,-0.54
2022-12-03T18:00:16.622Z,-0.54
2022-12-03T18:02:43.625Z,-0.57
2022-12-03T18:05:13.618Z,-0.61
2022-12-03T18:07:41.024Z,-0.63
2022-12-03T18:10:17.543Z,-0.61
2022-12-03T18:12:48.450Z,-0.69
2022-12-03T18:15:15.897Z,-0.72
2022-12-03T18:17:47.245Z,-0.72
2022-12-03T18:20:15.325Z,-0.76
2022-12-03T18:22:45.636Z,-0.74
2022-12-03T18:25:15.770Z,-0.78
2022-12-03T18:27:42.880Z,-0.81
2022-12-03T18:30:11.054Z,-0.73
2022-12-03T18:32:38.065Z,-0.75
2022-12-03T18:35:06.894Z,-0.82
2022-12-03T18:37:34.115Z,-0.78
2022-12-03T18:40:12.391Z,-0.77
2022-12-03T18:42:39.711Z,-0.81
2022-12-03T18:45:10.626Z,-0.78
2022-12-03T18:47:37.703Z,-0.78
2022-12-03T18:50:06.879Z,-0.80
2022-12-03T18:52:33.883Z,-0.76
2022-12-03T18:55:01.647Z,-0.82
2022-12-03T18:57:28.725Z,-0.83
2022-12-03T18:59:58.586Z,-0.81
2022-12-03T19:05:15.675Z,-0.84
2022-12-03T19:07:43.935Z,-0.82
2022-12-03T19:10:12.406Z,-0.79
2022-12-03T19:12:39.930Z,-0.81
2022-12-03T19:15:09.053Z,-0.82
2022-12-03T19:17:36.297Z,-0.82
2022-12-03T19:20:11.405Z,-0.79
2022-12-03T19:22:39.392Z,-0.81
2022-12-03T19:25:10.110Z,-0.81
2022-12-03T19:27:39.013Z,-0.82
2022-12-03T19:30:07.541Z,-0.88
2022-12-03T19:32:36.648Z,-0.83
2022-12-03T19:35:05.544Z,-0.87
2022-12-03T19:37:36.332Z,-0.88
2022-12-03T19:40:05.560Z,-0.86
2022-12-03T19:42:35.136Z,-0.85
2022-12-03T19:45:02.547Z,-0.86
2022-12-03T19:47:33.485Z,-0.81
2022-12-03T19:50:01.761Z,-0.78
2022-12-03T19:52:28.942Z,-0.78
2022-12-03T19:55:00.535Z,-0.75
2022-12-03T19:57:27.531Z,-0.77
2022-12-03T19:59:57.903Z,-0.79
2022-12-03T20:02:26.780Z,-0.77
2022-12-03T20:05:02.243Z,-0.73
2022-12-03T20:07:34.224Z,-0.73
2022-12-03T20:10:01.627Z,-0.74
2022-12-03T20:12:29.498Z,-0.72
2022-12-03T20:14:57.616Z,-0.76
2022-12-03T20:17:26.837Z,-0.72
2022-12-03T20:19:57.254Z,-0.68
2022-12-03T20:22:25.035Z,-0.63
2022-12-03T20:24:57.809Z,-0.62
2022-12-03T20:27:29.017Z,-0.64
2022-12-03T20:30:17.990Z,-0.63
2022-12-03T20:32:49.407Z,-0.63
2022-12-03T20:35:17.729Z,-0.67
2022-12-03T20:37:47.876Z,-0.71
2022-12-03T20:40:18.527Z,-0.77
2022-12-03T20:42:53.509Z,-0.72
2022-12-03T20:45:24.836Z,-0.73
2022-12-03T20:47:56.879Z,-0.74
2022-12-03T20:50:30.090Z,-0.74
2022-12-03T20:53:16.627Z,-0.73
2022-12-03T20:55:45.046Z,-0.71
2022-12-03T20:58:12.810Z,-0.76
2022-12-03T21:00:40.978Z,-0.74
2022-12-03T21:03:08.385Z,-0.75
2022-12-03T21:05:35.371Z,-0.76
2022-12-03T21:08:02.767Z,-0.73
2022-12-03T21:10:59.017Z,-0.75
2022-12-03T21:13:30.970Z,-0.75
2022-12-03T21:16:09.017Z,-0.76
2022-12-03T21:18:39.337Z,-0.79
2022-12-03T21:21:07.316Z,-0.75
2022-12-03T21:23:35.566Z,-0.76
2022-12-03T21:26:15.022Z,-0.70
2022-12-03T21:28:45.541Z,-0.70
2022-12-03T21:31:23.493Z,-0.65
2022-12-03T21:33:51.068Z,-0.64
2022-12-03T21:36:18.373Z,-0.65
2022-12-03T21:38:46.202Z,-0.59
2022-12-03T21:41:14.567Z,-0.58
2022-12-03T21:43:44.356Z,-0.56
2022-12-03T21:47:11.640Z,-0.57
2022-12-03T21:49:04.691Z,-0.54
2022-12-03T21:51:31.759Z,-0.54
2022-12-03T21:54:02.034Z,-0.52
2022-12-03T21:56:32.111Z,-0.54
2022-12-03T21:58:59.526Z,-0.56
2022-12-03T22:01:26.681Z,-0.53
2022-12-03T22:03:54.109Z,-0.55
2022-12-03T22:06:21.470Z,-0.57
2022-12-03T22:08:49.437Z,-0.53
2022-12-03T22:11:22.269Z,-0.51
2022-12-03T22:13:51.792Z,-0.53
2022-12-03T22:16:21.327Z,-0.53
2022-12-03T22:18:50.824Z,-0.56
2022-12-03T22:21:19.853Z,-0.60
2022-12-03T22:23:47.661Z,-0.64
2022-12-03T22:26:17.092Z,-0.59
2022-12-03T22:28:47.248Z,-0.58
2022-12-03T22:31:14.833Z,-0.56
2022-12-03T22:33:42.793Z,-0.58
2022-12-03T22:36:19.925Z,-0.55
2022-12-03T22:38:57.708Z,-0.54
2022-12-03T22:41:24.795Z,-0.56
2022-12-03T22:44:02.095Z,-0.58
2022-12-03T22:46:29.198Z,-0.59
2022-12-03T22:49:00.515Z,-0.60
2022-12-03T22:51:31.644Z,-0.60
2022-12-03T22:54:01.432Z,-0.64
2022-12-03T22:56:29.386Z,-0.57
2022-12-03T22:58:56.794Z,-0.63
2022-12-03T23:01:32.631Z,-0.58
2022-12-03T23:04:02.099Z,-0.54
2022-12-03T23:06:30.868Z,-0.56
2022-12-03T23:09:00.140Z,-0.59
2022-12-03T23:11:28.905Z,-0.59
2022-12-03T23:13:59.346Z,-0.63
2022-12-03T23:16:29.659Z,-0.61
2022-12-03T23:19:01.593Z,-0.56
2022-12-03T23:21:31.429Z,-0.59
2022-12-03T23:24:00.581Z,-0.56
2022-12-03T23:26:28.723Z,-0.58
2022-12-03T23:28:56.699Z,-0.58
2022-12-03T23:31:29.941Z,-0.61
2022-12-03T23:33:59.452Z,-0.58
2022-12-03T23:36:28.908Z,-0.58
2022-12-03T23:38:57.604Z,-0.60
2022-12-03T23:41:25.228Z,-0.65
2022-12-03T23:43:53.112Z,-0.63
2022-12-03T23:46:23.093Z,-0.57
2022-12-03T23:48:51.428Z,-0.55
2022-12-03T23:51:21.448Z,-0.56
2022-12-03T23:53:49.118Z,-0.57
2022-12-03T23:56:20.436Z,-0.55
2022-12-03T23:58:48.269Z,-0.55
